Time;durP1;ratioP1;P1;durP2;ratioP2;P2;SDS_P1;SDS_P2;PMS_P1;PMS_P2;Temp;Humidity;BMP_temperature;BMP_pressure;BME280_temperature;BME280_humidity;BME280_pressure;Samples;Min_cycle;Max_cycle;Signal;HPM_P1;HPM_P2
2022/03/22 00:01:44;;;;;;;0.30;0.20;;;;;;;5.36;84.87;101794.22;5018402;28;20476;-50
2022/03/22 00:04:11;;;;;;;1.07;1.07;;;;;;;5.28;85.75;101786.16;5024964;28;20448;-51
2022/03/22 00:06:38;;;;;;;0.90;0.77;;;;;;;5.22;86.12;101783.44;5025388;28;20443;-50
2022/03/22 00:09:04;;;;;;;2.00;2.00;;;;;;;5.20;86.13;101794.78;5019860;28;20452;-49
2022/03/22 00:11:33;;;;;;;1.07;0.97;;;;;;;5.02;87.33;101790.97;5018448;28;20472;-50
2022/03/22 00:13:59;;;;;;;0.30;0.30;;;;;;;5.06;86.72;101792.78;5031848;28;20788;-51
2022/03/22 00:16:26;;;;;;;0.97;0.80;;;;;;;5.24;86.53;101786.97;5028317;28;20515;-51
2022/03/22 00:19:12;;;;;;;0.30;0.10;;;;;;;5.18;87.07;101789.50;5022991;28;20813;-49
2022/03/22 00:21:39;;;;;;;0.30;0.20;;;;;;;5.14;86.51;101790.31;5017889;28;20525;-50
2022/03/22 00:24:06;;;;;;;0.30;0.20;;;;;;;5.15;86.13;101788.56;5020722;28;20821;-50
2022/03/22 00:26:32;;;;;;;0.30;0.20;;;;;;;5.32;87.64;101795.00;5025193;28;20448;-50
2022/03/22 00:29:00;;;;;;;0.67;0.67;;;;;;;5.08;86.56;101794.59;5023708;28;20448;-51
2022/03/22 00:31:31;;;;;;;0.40;0.40;;;;;;;5.14;85.52;101797.34;5018230;28;20545;-50
2022/03/22 00:33:58;;;;;;;0.30;0.20;;;;;;;5.05;86.20;101795.41;5019597;28;20453;-50
2022/03/22 00:36:25;;;;;;;0.50;0.50;;;;;;;5.09;86.74;101796.38;5025301;28;20488;-51
2022/03/22 00:38:52;;;;;;;0.30;0.20;;;;;;;5.09;86.44;101794.63;5024407;28;20522;-50
2022/03/22 00:41:19;;;;;;;0.30;0.20;;;;;;;4.84;86.84;101787.13;5018216;28;20973;-51
2022/03/22 00:43:46;;;;;;;0.30;0.23;;;;;;;4.99;87.39;101792.66;5019140;28;20527;-50
2022/03/22 00:46:13;;;;;;;0.37;0.37;;;;;;;4.96;87.14;101792.63;5025411;28;20448;-49
2022/03/22 00:48:40;;;;;;;0.30;0.20;;;;;;;4.80;87.03;101788.81;5022444;28;20491;-50
2022/03/22 00:51:07;;;;;;;0.73;0.73;;;;;;;4.63;88.39;101801.63;5028589;28;20943;-50
2022/03/22 00:53:34;;;;;;;0.30;0.30;;;;;;;4.93;87.38;101789.91;5028090;28;20867;-50
2022/03/22 00:56:01;;;;;;;4.27;0.73;;;;;;;4.64;87.36;101786.72;5008802;28;20541;-50
2022/03/22 00:58:28;;;;;;;0.30;0.20;;;;;;;4.65;89.34;101794.66;5022021;28;20460;-51
2022/03/22 01:00:55;;;;;;;0.33;0.23;;;;;;;4.47;89.54;101791.66;5009166;28;20475;-49
2022/03/22 01:03:22;;;;;;;0.57;0.57;;;;;;;4.42;88.60;101788.06;5021768;28;20448;-50
2022/03/22 01:05:50;;;;;;;0.40;0.40;;;;;;;4.29;89.59;101784.28;5027863;28;20952;-49
2022/03/22 01:08:17;;;;;;;0.30;0.20;;;;;;;4.18;88.27;101788.41;5028346;28;20452;-50
2022/03/22 01:10:51;;;;;;;0.67;0.43;;;;;;;4.16;89.96;101792.75;5022653;28;20471;-50
2022/03/22 01:13:25;;;;;;;0.20;0.20;;;;;;;4.12;89.17;101783.03;5022037;28;20453;-50
2022/03/22 01:15:52;;;;;;;0.30;0.20;;;;;;;4.10;89.77;101790.88;5032925;28;20541;-50
2022/03/22 01:18:19;;;;;;;0.53;0.53;;;;;;;4.13;88.50;101780.44;5021279;28;20497;-50
2022/03/22 01:20:49;;;;;;;0.30;0.10;;;;;;;3.99;89.69;101786.25;5024398;28;20484;-48
2022/03/22 01:23:19;;;;;;;1.30;1.30;;;;;;;3.88;88.75;101788.63;5025905;28;20899;-48
2022/03/22 01:25:45;;;;;;;0.37;0.37;;;;;;;3.72;89.45;101781.25;5026560;28;20454;-49
2022/03/22 01:28:13;;;;;;;0.30;0.17;;;;;;;3.70;89.67;101780.28;5020966;28;20448;-49
2022/03/22 01:30:41;;;;;;;0.50;0.50;;;;;;;3.61;88.42;101785.34;5022818;28;20483;-49
2022/03/22 01:33:08;;;;;;;3.50;2.10;;;;;;;3.72;89.89;101781.25;5027750;28;20460;-48
2022/03/22 01:35:35;;;;;;;0.30;0.17;;;;;;;3.66;87.96;101781.97;5026857;28;20522;-48
2022/03/22 01:38:02;;;;;;;0.30;0.20;;;;;;;3.77;89.03;101785.75;5020881;28;20483;-48
2022/03/22 01:40:30;;;;;;;0.30;0.20;;;;;;;3.59;88.71;101782.69;5021876;28;20538;-48
2022/03/22 01:42:58;;;;;;;0.30;0.20;;;;;;;3.52;89.18;101781.66;5027283;28;20457;-48
2022/03/22 01:45:25;;;;;;;0.20;0.20;;;;;;;3.52;90.77;101779.00;5019268;28;20823;-48
2022/03/22 01:47:58;;;;;;;0.30;0.20;;;;;;;3.34;89.70;101785.56;5027643;28;20445;-48
2022/03/22 01:50:25;;;;;;;0.30;0.20;;;;;;;3.38;90.58;101779.53;5027676;28;20480;-48
2022/03/22 01:52:54;;;;;;;0.53;0.47;;;;;;;3.37;90.46;101778.66;5022084;28;20505;-48
2022/03/22 01:55:23;;;;;;;0.30;0.20;;;;;;;3.32;90.33;101779.41;5020534;28;20457;-48
2022/03/22 01:57:50;;;;;;;0.30;0.20;;;;;;;3.39;90.96;101769.06;5024504;28;20496;-48
2022/03/22 02:00:19;;;;;;;4.10;0.93;;;;;;;3.15;92.61;101769.34;5027533;28;20696;-48
2022/03/22 02:05:54;;;;;;;0.30;0.30;;;;;;;3.30;92.82;101770.59;5020799;28;20444;-48
2022/03/22 02:08:31;;;;;;;0.30;0.10;;;;;;;3.22;91.53;101765.13;5020720;28;20837;-48
2022/03/22 02:11:00;;;;;;;0.30;0.20;;;;;;;3.15;91.10;101765.81;5024262;28;20471;-49
2022/03/22 02:13:29;;;;;;;0.30;0.20;;;;;;;3.16;90.89;101759.72;5030716;28;20479;-48
2022/03/22 02:16:01;;;;;;;0.30;0.20;;;;;;;3.21;91.77;101758.97;5031968;28;20490;-48
2022/03/22 02:18:29;;;;;;;3.30;3.20;;;;;;;3.19;91.78;101762.44;5020130;28;20527;-48
2022/03/22 02:20:57;;;;;;;0.27;0.20;;;;;;;3.11;91.17;101759.59;5021185;28;20480;-48
2022/03/22 02:23:53;;;;;;;0.43;0.43;;;;;;;3.12;91.01;101765.75;5026958;28;20448;-48
2022/03/22 02:26:21;;;;;;;0.30;0.17;;;;;;;3.01;90.98;101764.56;5026734;28;20448;-48
2022/03/22 02:28:53;;;;;;;0.30;0.30;;;;;;;3.14;90.87;101754.41;5013567;28;20482;-48
2022/03/22 02:31:24;;;;;;;0.90;0.90;;;;;;;2.79;91.49;101750.00;5017501;28;20842;-48
2022/03/22 02:33:51;;;;;;;0.30;0.20;;;;;;;2.71;92.52;101748.91;5022055;28;20989;-48
2022/03/22 02:36:18;;;;;;;0.30;0.20;;;;;;;2.75;92.15;101759.53;5027047;28;20519;-48
2022/03/22 02:38:45;;;;;;;0.20;0.10;;;;;;;2.59;92.98;101759.94;5024759;28;20514;-47
2022/03/22 02:41:17;;;;;;;0.20;0.20;;;;;;;2.52;92.72;101758.91;5019866;28;20525;-48
2022/03/22 02:43:45;;;;;;;0.30;0.17;;;;;;;2.66;92.33;101754.03;5021187;28;20484;-48
2022/03/22 02:46:12;;;;;;;1.10;1.10;;;;;;;2.56;91.34;101746.75;5023473;28;20507;-47
2022/03/22 02:48:38;;;;;;;0.20;0.10;;;;;;;2.47;93.12;101757.91;5020634;28;20456;-48
2022/03/22 02:51:05;;;;;;;0.70;0.70;;;;;;;2.54;92.85;101758.94;5026674;28;20587;-47
2022/03/22 02:53:32;;;;;;;0.23;0.10;;;;;;;2.53;92.09;101758.06;5025675;28;20869;-48
2022/03/22 02:55:59;;;;;;;0.30;0.20;;;;;;;2.78;91.88;101758.72;5019404;28;20487;-48
2022/03/22 02:58:26;;;;;;;0.20;0.20;;;;;;;2.68;91.85;101753.22;5020615;28;20452;-48
2022/03/22 03:00:52;;;;;;;0.20;0.20;;;;;;;2.49;92.89;101750.97;5026220;28;20472;-48
2022/03/22 03:03:21;;;;;;;0.30;0.20;;;;;;;2.49;91.31;101750.97;5026140;28;20452;-48
2022/03/22 03:05:52;;;;;;;3.60;2.30;;;;;;;2.33;92.06;101757.50;5026145;28;20460;-48
2022/03/22 03:08:19;;;;;;;0.30;0.20;;;;;;;2.36;94.22;101759.31;5026168;28;20452;-48
2022/03/22 03:10:46;;;;;;;0.20;0.10;;;;;;;2.28;94.30;101747.72;5020404;28;20529;-48
2022/03/22 03:13:13;;;;;;;2.00;1.30;;;;;;;2.22;93.19;101753.69;5020483;28;20495;-47
2022/03/22 03:15:40;;;;;;;0.20;0.10;;;;;;;2.32;92.48;101760.06;5030666;28;20796;-48
2022/03/22 03:18:06;;;;;;;0.30;0.23;;;;;;;2.19;94.08;101757.94;5019438;28;20492;-48
2022/03/22 03:20:33;;;;;;;0.47;0.47;;;;;;;2.41;93.33;101760.34;5023300;28;20516;-48
2022/03/22 03:22:59;;;;;;;0.20;0.10;;;;;;;2.14;91.94;101759.53;5025701;28;20462;-47
2022/03/22 03:25:27;;;;;;;0.30;0.20;;;;;;;2.06;92.63;101770.72;5022086;28;20497;-47
2022/03/22 03:27:53;;;;;;;0.67;0.63;;;;;;;2.16;92.87;101771.84;5019540;28;20526;-47
2022/03/22 03:30:20;;;;;;;0.20;0.10;;;;;;;2.12;92.76;101769.09;5023827;28;20468;-48
2022/03/22 03:32:47;;;;;;;0.30;0.20;;;;;;;2.06;92.94;101778.56;5027045;28;20455;-48
2022/03/22 03:35:14;;;;;;;0.30;0.20;;;;;;;2.22;91.79;101773.78;5022197;28;20451;-47
2022/03/22 03:37:46;;;;;;;0.30;0.20;;;;;;;2.26;93.30;101780.88;5018912;28;20495;-48
2022/03/22 03:40:13;;;;;;;0.30;0.10;;;;;;;1.85;93.84;101780.53;5021879;28;20514;-47
2022/03/22 03:42:44;;;;;;;0.20;0.10;;;;;;;1.85;94.89;101783.16;5025834;28;20528;-47
2022/03/22 03:47:59;;;;;;;0.30;0.20;;;;;;;1.93;93.88;101784.28;5008156;28;20935;-47
2022/03/22 03:50:26;;;;;;;0.40;0.40;;;;;;;1.90;94.84;101796.41;5019201;28;20579;-48
2022/03/22 03:52:53;;;;;;;0.80;0.53;;;;;;;1.80;94.35;101790.00;5024324;28;20452;-48
2022/03/22 03:55:20;;;;;;;0.20;0.10;;;;;;;1.92;92.33;101790.38;5025454;28;20498;-48
2022/03/22 03:57:48;;;;;;;0.20;0.20;;;;;;;1.79;92.78;101796.09;5020385;28;20545;-48
2022/03/22 04:00:16;;;;;;;0.20;0.13;;;;;;;1.60;93.43;101794.59;5018292;28;20950;-48
2022/03/22 04:02:43;;;;;;;0.80;0.80;;;;;;;1.81;93.89;101796.13;5023889;28;20471;-49
2022/03/22 04:05:10;;;;;;;0.20;0.10;;;;;;;1.55;94.47;101801.44;5025686;28;20451;-47
2022/03/22 04:07:37;;;;;;;0.20;0.10;;;;;;;1.51;93.44;101796.94;5021042;28;20447;-48
2022/03/22 04:10:04;;;;;;;0.30;0.20;;;;;;;1.40;94.29;101793.97;5018491;28;20468;-48
2022/03/22 04:12:31;;;;;;;0.20;0.10;;;;;;;1.46;94.76;101799.38;5023089;28;20449;-49
2022/03/22 04:14:57;;;;;;;0.50;0.50;;;;;;;1.53;94.34;101800.50;5022629;28;20448;-48
2022/03/22 04:17:24;;;;;;;0.20;0.20;;;;;;;1.45;93.37;101802.84;5013126;28;20480;-48
2022/03/22 04:19:51;;;;;;;0.20;0.20;;;;;;;1.40;93.32;101796.59;5026030;28;20477;-48
2022/03/22 04:22:18;;;;;;;0.20;0.20;;;;;;;1.30;93.46;101797.09;5025961;28;20463;-48
2022/03/22 04:24:45;;;;;;;0.20;0.10;;;;;;;1.38;92.89;101800.88;5022737;28;20505;-48
2022/03/22 04:32:42;;;;;;;0.30;0.30;;;;;;;1.18;93.46;101794.97;5029150;28;20475;-48
2022/03/22 04:35:14;;;;;;;0.20;0.10;;;;;;;1.20;94.77;101795.00;5025133;28;20475;-48
2022/03/22 04:37:41;;;;;;;1.90;1.80;;;;;;;1.19;94.43;101790.63;5021942;28;20960;-47
2022/03/22 04:40:08;;;;;;;0.20;0.20;;;;;;;1.20;94.05;101792.41;5025830;28;20476;-48
2022/03/22 04:42:35;;;;;;;0.20;0.20;;;;;;;1.17;92.88;101790.56;5028898;28;20459;-48
2022/03/22 04:45:03;;;;;;;0.20;0.10;;;;;;;1.17;92.94;101793.19;5020382;28;20503;-47
2022/03/22 04:47:30;;;;;;;0.20;0.20;;;;;;;1.10;92.15;101799.06;5028671;28;20575;-48
2022/03/22 04:49:56;;;;;;;0.47;0.47;;;;;;;1.05;93.27;101790.16;5025938;28;21061;-47
2022/03/22 04:57:53;;;;;;;0.20;0.20;;;;;;;1.11;93.57;101794.72;5025969;28;20471;-48
2022/03/22 05:00:20;;;;;;;0.20;0.17;;;;;;;1.12;94.94;101802.63;5028592;28;20548;-48
2022/03/22 05:02:47;;;;;;;0.27;0.20;;;;;;;1.11;93.92;101799.97;5025058;28;20451;-47
2022/03/22 05:05:15;;;;;;;1.40;0.87;;;;;;;1.01;93.65;101792.63;5021627;28;20458;-48
2022/03/22 05:07:42;;;;;;;0.77;0.77;;;;;;;1.06;93.17;101797.16;5025340;28;20549;-49
2022/03/22 05:10:09;;;;;;;0.20;0.10;;;;;;;1.07;93.00;101798.06;5028134;28;20472;-48
2022/03/22 05:12:39;;;;;;;0.20;0.10;;;;;;;0.89;93.52;101799.22;5024972;28;20456;-48
2022/03/22 05:15:07;;;;;;;1.63;1.53;;;;;;;0.87;95.31;101792.16;5033098;28;20980;-48
2022/03/22 05:17:33;;;;;;;0.50;0.50;;;;;;;0.92;94.47;101800.16;5024102;28;20449;-48
2022/03/22 05:20:00;;;;;;;0.27;0.17;;;;;;;0.83;94.45;101812.09;5028056;28;20977;-48
2022/03/22 05:22:26;;;;;;;0.20;0.17;;;;;;;0.96;94.74;101807.25;5025904;28;20529;-48
2022/03/22 05:24:53;;;;;;;0.20;0.20;;;;;;;0.83;93.72;101814.72;5021380;28;20447;-48
2022/03/22 05:27:20;;;;;;;0.20;0.20;;;;;;;0.76;94.93;101814.41;5023788;28;21051;-48
2022/03/22 05:29:46;;;;;;;0.20;0.10;;;;;;;0.85;94.90;101815.66;5027667;28;20499;-48
2022/03/22 05:32:13;;;;;;;0.70;0.70;;;;;;;1.08;93.09;101819.03;5024877;28;20582;-48
2022/03/22 05:34:39;;;;;;;0.30;0.30;;;;;;;0.88;93.14;101818.38;5021371;28;20459;-48
2022/03/22 05:37:06;;;;;;;0.20;0.10;;;;;;;0.78;94.10;101820.59;5023112;28;20480;-48
2022/03/22 05:39:33;;;;;;;0.20;0.10;;;;;;;0.73;94.68;101828.28;5028048;28;20452;-49
2022/03/22 05:41:59;;;;;;;0.20;0.20;;;;;;;0.69;94.32;101828.13;5025509;28;20448;-49
2022/03/22 05:44:26;;;;;;;0.20;0.10;;;;;;;0.65;95.45;101823.59;5020617;28;20514;-49
2022/03/22 05:46:55;;;;;;;2.20;1.90;;;;;;;0.75;97.39;101825.72;5024806;28;20817;-48
2022/03/22 05:49:21;;;;;;;0.27;0.23;;;;;;;0.69;97.21;101828.13;5020549;28;20948;-48
2022/03/22 05:51:48;;;;;;;0.20;0.10;;;;;;;0.74;97.26;101821.34;5022456;28;20605;-48
2022/03/22 05:54:15;;;;;;;0.30;0.20;;;;;;;0.94;97.19;101822.91;5027811;28;20992;-48
2022/03/22 05:56:41;;;;;;;0.20;0.10;;;;;;;0.83;96.25;101824.28;5026714;28;20490;-50
2022/03/22 05:59:08;;;;;;;0.20;0.10;;;;;;;0.93;97.05;101830.72;5020477;28;20949;-48
2022/03/22 06:01:34;;;;;;;0.20;0.10;;;;;;;1.06;97.44;101822.44;5021565;28;20527;-48
2022/03/22 06:04:01;;;;;;;0.20;0.17;;;;;;;1.22;96.88;101814.28;5027264;28;20532;-48
2022/03/22 06:06:28;;;;;;;0.20;0.10;;;;;;;1.29;97.12;101818.00;5026137;28;20447;-49
2022/03/22 06:08:54;;;;;;;0.20;0.20;;;;;;;1.41;97.04;101810.56;5020404;28;20496;-49
2022/03/22 06:11:21;;;;;;;0.20;0.10;;;;;;;1.36;96.06;101810.41;5021831;28;20519;-48
2022/03/22 06:13:48;;;;;;;0.30;0.27;;;;;;;1.50;96.91;101818.72;5032509;28;20448;-49
2022/03/22 06:16:16;;;;;;;0.20;0.10;;;;;;;1.64;95.97;101822.66;5032042;28;20501;-48
2022/03/22 06:18:43;;;;;;;0.20;0.10;;;;;;;1.49;96.68;101819.56;5020906;28;20876;-48
2022/03/22 06:21:09;;;;;;;2.30;0.63;;;;;;;1.57;97.69;101828.56;5019813;28;20527;-48
2022/03/22 06:23:36;;;;;;;0.20;0.10;;;;;;;1.90;96.32;101826.13;5026084;28;21013;-49
2022/03/22 06:26:03;;;;;;;0.20;0.10;;;;;;;2.06;96.52;101811.78;5026638;28;20474;-49
2022/03/22 06:28:29;;;;;;;0.50;0.47;;;;;;;2.13;95.92;101816.34;5020836;28;20488;-49
2022/03/22 06:30:56;;;;;;;0.20;0.20;;;;;;;2.18;96.46;101827.84;5019872;28;20473;-49
2022/03/22 06:33:24;;;;;;;0.20;0.20;;;;;;;2.42;96.92;101827.72;5025989;28;20452;-48
2022/03/22 06:35:51;;;;;;;0.40;0.40;;;;;;;2.55;96.27;101821.97;5026489;28;20459;-48
2022/03/22 06:38:18;;;;;;;0.20;0.10;;;;;;;2.62;95.61;101831.81;5021149;28;20975;-48
2022/03/22 06:40:47;;;;;;;0.30;0.20;;;;;;;2.77;94.97;101825.22;5019577;28;20483;-48
2022/03/22 06:43:16;;;;;;;0.30;0.10;;;;;;;2.89;95.17;101836.06;5024729;28;20455;-48
2022/03/22 06:45:44;;;;;;;2.50;1.70;;;;;;;2.98;94.04;101826.69;5019589;28;20495;-48
2022/03/22 06:48:12;;;;;;;0.30;0.20;;;;;;;3.07;94.03;101826.03;5023984;28;20577;-49
2022/03/22 06:50:39;;;;;;;0.30;0.20;;;;;;;3.17;93.25;101829.81;5026388;28;20526;-48
2022/03/22 06:53:07;;;;;;;0.30;0.30;;;;;;;3.22;93.66;101829.06;5022452;28;20451;-48
2022/03/22 06:55:35;;;;;;;1.40;1.40;;;;;;;3.22;94.55;101831.69;5019138;28;20457;-48
2022/03/22 06:58:02;;;;;;;0.20;0.10;;;;;;;3.19;93.69;101834.25;5023207;28;20456;-49
2022/03/22 07:00:31;;;;;;;0.33;0.30;;;;;;;3.40;93.60;101835.63;5025933;28;20476;-48
2022/03/22 07:03:00;;;;;;;0.90;0.90;;;;;;;3.51;93.06;101836.81;5023337;28;20451;-48
2022/03/22 07:05:28;;;;;;;0.30;0.20;;;;;;;3.46;93.52;101844.59;5019582;28;20461;-48
2022/03/22 07:07:56;;;;;;;0.70;0.67;;;;;;;3.56;92.45;101836.09;5021985;28;20551;-48
2022/03/22 07:10:23;;;;;;;0.20;0.10;;;;;;;3.64;92.41;101838.00;5024777;28;20841;-49
2022/03/22 07:13:03;;;;;;;0.20;0.13;;;;;;;3.91;92.43;101829.88;5024434;28;20870;-48
2022/03/22 07:15:35;;;;;;;0.20;0.20;;;;;;;4.04;90.87;101835.47;5009093;28;20482;-48
2022/03/22 07:18:05;;;;;;;0.30;0.20;;;;;;;4.32;89.45;101836.97;5019121;28;20448;-49
2022/03/22 07:20:33;;;;;;;0.20;0.10;;;;;;;4.13;89.57;101835.69;5023192;28;20491;-50
2022/03/22 07:23:00;;;;;;;0.43;0.40;;;;;;;4.29;91.14;101834.28;5026144;28;20539;-50
2022/03/22 07:25:27;;;;;;;0.30;0.20;;;;;;;4.41;89.14;101836.28;5021303;28;20448;-50
2022/03/22 07:27:54;;;;;;;0.20;0.10;;;;;;;4.53;89.33;101836.56;5018998;28;20559;-51
2022/03/22 07:30:21;;;;;;;0.20;0.20;;;;;;;4.74;88.97;101836.97;5023030;28;20468;-50
2022/03/22 07:32:49;;;;;;;0.30;0.10;;;;;;;4.89;88.01;101833.75;5025620;28;20452;-50
2022/03/22 07:35:19;;;;;;;0.20;0.20;;;;;;;5.19;86.46;101836.06;5021847;28;20495;-50
2022/03/22 07:37:48;;;;;;;0.30;0.20;;;;;;;5.00;86.76;101834.84;5018749;28;20494;-50
2022/03/22 07:40:16;;;;;;;0.30;0.30;;;;;;;5.21;86.33;101837.03;5022117;28;21053;-50
2022/03/22 07:42:42;;;;;;;1.03;0.93;;;;;;;5.43;85.19;101826.84;5025747;28;20452;-50
2022/03/22 07:45:10;;;;;;;0.20;0.20;;;;;;;5.69;84.25;101833.44;5016733;28;20799;-49
2022/03/22 07:47:38;;;;;;;2.93;1.60;;;;;;;5.84;82.75;101836.31;5025572;28;20491;-50
2022/03/22 07:53:06;;;;;;;0.27;0.17;;;;;;;6.22;82.38;101839.56;5006449;28;20482;-51
2022/03/22 07:55:35;;;;;;;0.93;0.83;;;;;;;6.14;81.20;101841.19;5018067;28;20911;-51
2022/03/22 07:58:03;;;;;;;0.30;0.10;;;;;;;6.04;81.42;101841.94;5022370;28;20506;-51
2022/03/22 08:00:34;;;;;;;0.40;0.33;;;;;;;6.37;80.73;101836.25;5025343;28;20500;-51
2022/03/22 08:03:03;;;;;;;2.53;2.43;;;;;;;6.56;77.98;101839.13;5022641;28;20506;-50
2022/03/22 08:05:32;;;;;;;0.50;0.50;;;;;;;6.63;76.54;101839.22;5018567;28;20451;-50
2022/03/22 08:08:02;;;;;;;0.30;0.20;;;;;;;6.74;76.36;101845.53;5021228;28;20484;-50
2022/03/22 08:10:48;;;;;;;0.40;0.40;;;;;;;6.98;76.85;101838.75;5008601;28;20550;-51
2022/03/22 08:13:15;;;;;;;0.87;0.70;;;;;;;7.23;76.84;101848.72;5019568;28;20448;-50
2022/03/22 08:15:42;;;;;;;0.30;0.20;;;;;;;7.26;75.74;101839.91;5030190;28;20452;-51
2022/03/22 08:18:09;;;;;;;0.30;0.10;;;;;;;7.41;75.87;101840.97;5018785;28;20510;-51
2022/03/22 08:20:37;;;;;;;0.30;0.30;;;;;;;7.25;76.66;101846.97;5022729;28;20480;-50
2022/03/22 08:23:04;;;;;;;0.30;0.20;;;;;;;7.59;75.59;101834.97;5025292;28;20459;-51
2022/03/22 08:25:36;;;;;;;0.90;0.90;;;;;;;7.89;74.47;101839.59;5021657;28;20443;-51
2022/03/22 08:28:05;;;;;;;0.30;0.20;;;;;;;7.81;74.78;101838.69;5018544;28;20996;-51
2022/03/22 08:30:33;;;;;;;0.30;0.20;;;;;;;8.32;74.02;101837.22;5021194;28;20473;-50
2022/03/22 08:33:06;;;;;;;1.60;1.60;;;;;;;8.32;74.02;101838.13;5025093;28;20867;-51
2022/03/22 08:35:33;;;;;;;0.30;0.20;;;;;;;8.37;71.19;101832.91;5023556;28;20894;-51
2022/03/22 08:38:00;;;;;;;0.50;0.50;;;;;;;8.43;72.02;101830.25;5018480;28;20455;-51
2022/03/22 08:40:26;;;;;;;0.43;0.37;;;;;;;8.60;70.83;101832.97;5019858;28;20468;-51
2022/03/22 08:42:56;;;;;;;0.30;0.20;;;;;;;8.96;70.09;101820.75;5025384;28;20787;-51
2022/03/22 08:45:25;;;;;;;0.50;0.50;;;;;;;9.02;69.92;101820.75;5016373;28;20487;-51
2022/03/22 08:47:53;;;;;;;0.47;0.47;;;;;;;8.99;70.28;101823.41;5024627;28;20538;-51
2022/03/22 08:50:25;;;;;;;0.40;0.20;;;;;;;9.26;68.44;101825.22;5024877;28;21079;-51
2022/03/22 08:52:57;;;;;;;0.50;0.47;;;;;;;9.42;66.92;101824.38;5019499;28;20455;-51
2022/03/22 08:55:24;;;;;;;0.50;0.47;;;;;;;9.61;66.69;101828.81;5018634;28;20491;-51
2022/03/22 08:57:52;;;;;;;0.60;0.60;;;;;;;9.62;66.04;101827.03;5023481;28;20890;-51
2022/03/22 09:00:20;;;;;;;0.80;0.80;;;;;;;9.68;65.48;101821.72;5025001;28;20526;-50
2022/03/22 09:02:49;;;;;;;0.33;0.20;;;;;;;9.80;64.80;101819.94;5020702;28;20494;-51
2022/03/22 09:08:06;;;;;;;0.30;0.20;;;;;;;10.31;60.34;101820.78;5022878;28;20869;-50
2022/03/22 09:10:34;;;;;;;0.30;0.20;;;;;;;10.70;59.95;101818.88;5028050;28;20464;-50
2022/03/22 09:13:03;;;;;;;0.30;0.20;;;;;;;10.58;53.36;101810.94;5028675;28;20443;-50
2022/03/22 09:15:31;;;;;;;0.30;0.20;;;;;;;10.79;51.78;101812.59;5031867;28;20943;-50
2022/03/22 09:17:58;;;;;;;2.10;2.00;;;;;;;10.95;50.84;101811.63;5021494;28;20448;-50
2022/03/22 09:20:26;;;;;;;0.50;0.50;;;;;;;10.94;49.42;101810.75;5027014;28;20500;-49
2022/03/22 09:22:53;;;;;;;0.30;0.20;;;;;;;11.04;48.66;101808.94;5027995;28;20456;-50
2022/03/22 09:25:22;;;;;;;1.60;1.30;;;;;;;11.27;48.98;101814.13;5022995;28;20448;-49
2022/03/22 09:27:49;;;;;;;0.40;0.33;;;;;;;11.24;48.15;101814.13;5021430;28;20453;-49
2022/03/22 09:30:16;;;;;;;0.93;0.93;;;;;;;11.33;48.37;101813.16;5025709;28;20477;-49
2022/03/22 09:32:43;;;;;;;2.93;1.60;;;;;;;11.51;47.69;101805.03;5028025;28;20517;-49
2022/03/22 09:35:12;;;;;;;0.30;0.20;;;;;;;11.43;47.06;101812.22;5023724;28;21106;-49
2022/03/22 09:37:41;;;;;;;1.80;1.70;;;;;;;11.62;47.03;101803.16;5020914;28;20501;-49
2022/03/22 09:40:10;;;;;;;0.70;0.70;;;;;;;11.70;46.07;101809.34;5024325;28;20476;-49
2022/03/22 09:42:38;;;;;;;0.30;0.20;;;;;;;12.03;46.56;101799.28;5028078;28;20469;-49
2022/03/22 09:45:17;;;;;;;0.30;0.20;;;;;;;11.91;45.47;101805.59;5018634;28;20449;-49
2022/03/22 09:47:45;;;;;;;0.30;0.20;;;;;;;11.91;46.61;101797.59;5027742;28;20503;-49
2022/03/22 09:50:14;;;;;;;1.23;0.63;;;;;;;12.17;46.06;101808.00;5026729;28;21033;-49
2022/03/22 09:52:44;;;;;;;1.33;1.23;;;;;;;12.16;45.14;101793.78;5007997;28;20932;-49
2022/03/22 09:55:13;;;;;;;0.57;0.57;;;;;;;12.10;44.96;101804.53;5020857;28;20449;-49
2022/03/22 09:57:39;;;;;;;0.60;0.60;;;;;;;12.40;45.23;101797.97;5026504;28;20874;-48
2022/03/22 10:00:09;;;;;;;1.30;1.30;;;;;;;12.26;44.33;101805.25;5027436;28;20491;-49
2022/03/22 10:02:36;;;;;;;0.30;0.20;;;;;;;12.44;44.41;101799.69;5022052;28;20534;-49
2022/03/22 10:05:04;;;;;;;0.60;0.60;;;;;;;12.51;44.25;101796.97;5020371;28;20876;-49
2022/03/22 10:07:32;;;;;;;1.10;0.97;;;;;;;12.66;43.38;101795.00;5026148;28;20453;-50
2022/03/22 10:10:02;;;;;;;0.30;0.20;;;;;;;12.62;43.89;101792.38;5027105;28;20517;-50
2022/03/22 10:12:33;;;;;;;0.40;0.30;;;;;;;12.45;43.39;101793.47;5022450;28;21016;-49
2022/03/22 10:15:13;;;;;;;4.43;0.43;;;;;;;12.64;43.75;101787.91;5031827;28;20436;-49
2022/03/22 10:17:43;;;;;;;0.30;0.20;;;;;;;12.71;42.82;101785.13;5007180;28;20875;-49
2022/03/22 10:20:21;;;;;;;12.63;2.73;;;;;;;12.62;43.28;101785.28;5026145;28;20480;-51
2022/03/22 10:22:55;;;;;;;0.30;0.20;;;;;;;12.80;43.97;101780.59;5027122;28;20455;-49
2022/03/22 10:25:23;;;;;;;0.40;0.40;;;;;;;13.16;43.59;101771.16;5022224;28;20879;-50
2022/03/22 10:27:54;;;;;;;0.50;0.50;;;;;;;12.64;43.60;101777.25;5019873;28;20464;-49
2022/03/22 10:30:25;;;;;;;0.63;0.63;;;;;;;13.07;44.25;101774.84;5023692;28;21035;-49
2022/03/22 10:32:53;;;;;;;0.40;0.40;;;;;;;13.28;43.21;101769.19;5027068;28;20503;-50
2022/03/22 10:35:31;;;;;;;1.10;1.07;;;;;;;13.34;42.76;101774.44;5023316;28;20937;-49
2022/03/22 10:38:01;;;;;;;0.40;0.30;;;;;;;13.29;43.21;101776.31;5019639;28;21003;-50
2022/03/22 10:40:35;;;;;;;0.33;0.27;;;;;;;13.32;42.78;101765.59;5021294;28;20880;-49
2022/03/22 10:43:10;;;;;;;0.30;0.20;;;;;;;13.68;44.03;101768.53;5026954;28;20452;-50
2022/03/22 10:45:44;;;;;;;1.13;1.13;;;;;;;13.78;43.75;101763.91;5018500;28;20444;-50
2022/03/22 10:48:33;;;;;;;2.30;2.10;;;;;;;13.65;42.84;101768.59;5024332;28;20445;-50
2022/03/22 10:51:01;;;;;;;0.40;0.30;;;;;;;13.55;42.23;101773.19;5026098;28;20468;-49
2022/03/22 10:53:30;;;;;;;0.60;0.60;;;;;;;13.37;41.23;101769.97;5025620;28;20490;-49
2022/03/22 10:55:59;;;;;;;0.40;0.30;;;;;;;13.69;40.89;101778.31;5020074;28;20486;-50
2022/03/22 10:58:27;;;;;;;1.17;1.07;;;;;;;13.77;40.71;101771.03;5019737;28;21098;-50
2022/03/22 11:00:55;;;;;;;0.30;0.20;;;;;;;13.61;41.81;101770.44;5007027;28;21008;-50
2022/03/22 11:03:24;;;;;;;0.50;0.50;;;;;;;13.66;41.31;101770.34;5019349;28;20456;-49
2022/03/22 11:05:53;;;;;;;6.93;2.57;;;;;;;13.52;41.45;101767.03;5025721;28;20452;-50
2022/03/22 11:08:22;;;;;;;3.70;3.40;;;;;;;13.91;41.64;101777.03;5026237;28;20447;-50
2022/03/22 11:10:51;;;;;;;3.07;2.50;;;;;;;13.97;42.27;101769.78;5021225;28;20851;-50
2022/03/22 11:13:17;;;;;;;0.40;0.30;;;;;;;14.02;41.11;101758.13;5020193;28;20459;-50
2022/03/22 11:15:46;;;;;;;6.03;3.60;;;;;;;13.83;41.44;101762.91;5030864;28;20485;-50
2022/03/22 11:18:15;;;;;;;0.43;0.43;;;;;;;13.79;41.06;101753.19;5019234;28;20452;-49
2022/03/22 11:20:48;;;;;;;0.50;0.47;;;;;;;13.94;41.94;101758.25;5022237;28;20477;-50
2022/03/22 11:23:18;;;;;;;0.40;0.37;;;;;;;14.33;42.03;101752.16;5024270;28;20456;-50
2022/03/22 11:25:45;;;;;;;0.73;0.73;;;;;;;14.24;40.29;101764.78;5024286;28;20455;-50
2022/03/22 11:28:16;;;;;;;0.43;0.40;;;;;;;14.17;40.84;101757.81;5019257;28;20505;-49
2022/03/22 11:30:43;;;;;;;0.30;0.20;;;;;;;13.92;40.22;101743.16;5019095;28;20867;-50
2022/03/22 11:35:58;;;;;;;2.00;1.90;;;;;;;14.19;40.65;101747.09;5025754;28;20448;-49
2022/03/22 11:38:37;;;;;;;0.30;0.20;;;;;;;14.44;39.98;101740.34;5021794;28;20456;-50
2022/03/22 11:43:50;;;;;;;9.63;2.30;;;;;;;14.74;39.35;101737.91;5019277;28;20479;-49
2022/03/22 11:46:17;;;;;;;2.83;1.13;;;;;;;15.13;39.72;101732.56;5024484;28;20447;-49
2022/03/22 11:48:50;;;;;;;2.10;0.97;;;;;;;15.01;39.71;101731.94;5018707;28;20480;-50
2022/03/22 11:51:23;;;;;;;1.00;1.00;;;;;;;14.70;38.45;101739.78;5023974;28;20526;-50
2022/03/22 11:53:50;;;;;;;0.30;0.30;;;;;;;14.79;39.03;101733.31;5025612;28;20888;-50
2022/03/22 11:56:26;;;;;;;1.20;1.20;;;;;;;14.95;38.65;101725.84;5022569;28;20505;-49
2022/03/22 11:58:52;;;;;;;1.93;1.83;;;;;;;15.10;38.11;101722.81;5018688;28;20493;-50
2022/03/22 12:01:35;;;;;;;0.80;0.80;;;;;;;14.92;39.00;101725.91;5020639;28;20544;-49
2022/03/22 12:04:14;;;;;;;0.67;0.67;;;;;;;14.94;38.31;101727.66;5005957;28;20452;-49
2022/03/22 12:06:43;;;;;;;0.60;0.60;;;;;;;15.16;38.70;101716.41;5018957;28;20451;-49